Map

Track Data

SID SEASON NUMBER BASIN SUBBASIN NAME ISO_TIME NATURE LAT LON WMO_WIND WMO_PRES WMO_AGENCY TRACK_TYPE DIST2LAND LANDFALL IFLAG USA_AGENCY USA_ATCF_ID USA_LAT USA_LON USA_RECORD USA_STATUS USA_WIND USA_PRES USA_SSHS USA_R34_NE USA_R34_SE USA_R34_SW USA_R34_NW USA_R50_NE USA_R50_SE USA_R50_SW USA_R50_NW USA_R64_NE USA_R64_SE USA_R64_SW USA_R64_NW USA_POCI USA_ROCI USA_RMW USA_EYE TOKYO_LAT TOKYO_LON TOKYO_GRADE TOKYO_WIND TOKYO_PRES TOKYO_R50_DIR TOKYO_R50_LONG TOKYO_R50_SHORT TOKYO_R30_DIR TOKYO_R30_LONG TOKYO_R30_SHORT TOKYO_LAND CMA_LAT CMA_LON CMA_CAT CMA_WIND CMA_PRES HKO_LAT HKO_LON HKO_CAT HKO_WIND HKO_PRES NEWDELHI_LAT NEWDELHI_LON NEWDELHI_GRADE NEWDELHI_WIND NEWDELHI_PRES NEWDELHI_CI NEWDELHI_DP NEWDELHI_POCI REUNION_LAT REUNION_LON REUNION_TYPE REUNION_WIND REUNION_PRES REUNION_TNUM REUNION_CI REUNION_RMW REUNION_R34_NE REUNION_R34_SE REUNION_R34_SW REUNION_R34_NW REUNION_R50_NE REUNION_R50_SE REUNION_R50_SW REUNION_R50_NW REUNION_R64_NE REUNION_R64_SE REUNION_R64_SW REUNION_R64_NW BOM_LAT BOM_LON BOM_TYPE BOM_WIND BOM_PRES BOM_TNUM BOM_CI BOM_RMW BOM_R34_NE BOM_R34_SE BOM_R34_SW BOM_R34_NW BOM_R50_NE BOM_R50_SE BOM_R50_SW BOM_R50_NW BOM_R64_NE BOM_R64_SE BOM_R64_SW BOM_R64_NW BOM_ROCI BOM_POCI BOM_EYE BOM_POS_METHOD BOM_PRES_METHOD NADI_LAT NADI_LON NADI_CAT NADI_WIND NADI_PRES WELLINGTON_LAT WELLINGTON_LON WELLINGTON_WIND WELLINGTON_PRES DS824_LAT DS824_LON DS824_STAGE DS824_WIND DS824_PRES TD9636_LAT TD9636_LON TD9636_STAGE TD9636_WIND TD9636_PRES TD9635_LAT TD9635_LON TD9635_WIND TD9635_PRES TD9635_ROCI NEUMANN_LAT NEUMANN_LON NEUMANN_CLASS NEUMANN_WIND NEUMANN_PRES MLC_LAT MLC_LON MLC_CLASS MLC_WIND MLC_PRES USA_GUST BOM_GUST BOM_GUST_PER REUNION_GUST REUNION_GUST_PER USA_SEAHGT USA_SEARAD_NE USA_SEARAD_SE USA_SEARAD_SW USA_SEARAD_NW STORM_SPEED STORM_DIR
1982287N22137 1982 92 WP MM NOT_NAMED 1982-10-13 12:00:00 TS 21.6000 136.700 main 1207 1133 __O___________ -1 21.6000 136.700 1 23 1008 15 312
1982287N22137 1982 92 WP MM NOT_NAMED 1982-10-13 15:00:00 TS 22.0888 136.123 main 1129 1057 __P___________ -1 22.0888 136.123 1 23 1008 16 305
1982287N22137 1982 92 WP MM NOT_NAMED 1982-10-13 18:00:00 TS 22.5000 135.300 main 1052 979 __O___________ -1 22.5000 135.300 1 23 1008 20 291
1982287N22137 1982 92 WP MM NOT_NAMED 1982-10-13 21:00:00 TS 22.7821 134.120 main 975 921 __P___________ -1 22.7821 134.120 1 23 1008 22 283
1982287N22137 1982 92 WP MM NOT_NAMED 1982-10-14 00:00:00 TS 23.0000 133.000 main 921 887 __O___________ -1 23.0000 133.000 1 23 1008 17 287
1982287N22137 1982 92 WP MM NOT_NAMED 1982-10-14 03:00:00 TS 23.2637 132.380 main 876 847 __P___________ -1 23.2637 132.380 1 23 1008 10 299
1982287N22137 1982 92 WP MM NOT_NAMED 1982-10-14 06:00:00 TS 23.5000 132.000 main 847 821 __O___________ -1 23.5000 132.000 1 23 1008 8 302
1982287N22137 1982 92 WP MM NOT_NAMED 1982-10-14 09:00:00 TS 23.6719 131.665 main 821 806 __P___________ -1 23.6719 131.665 1 23 1008 7 295
1982287N22137 1982 92 WP MM NOT_NAMED 1982-10-14 12:00:00 TS 23.8000 131.300 main 806 792 __O___________ -1 23.8000 131.300 1 23 1008 9 286
1982287N22137 1982 92 WP MM NOT_NAMED 1982-10-14 15:00:00 TS 23.9151 130.738 main 792 781 __P___________ -1 23.9151 130.738 1 23 1008 11 280
1982287N22137 1982 92 WP MM NOT_NAMED 1982-10-14 18:00:00 TS 24.0000 130.100 main 783 764 __O___________ -1 24.0000 130.100 1 23 1008 12 278
1982287N22137 1982 92 WP MM NOT_NAMED 1982-10-14 21:00:00 TS 24.0726 129.470 main 764 704 __P___________ -1 24.0726 129.470 1 26 1007 11 275
1982287N22137 1982 92 WP MM NOT_NAMED 1982-10-15 00:00:00 TS 24.1000 128.900 main 704 654 __O___________ -1 24.1000 128.900 1 29 1006 10 269
1982287N22137 1982 92 WP MM NOT_NAMED 1982-10-15 03:00:00 TS 24.0574 128.410 main 654 626 __P___________ -1 24.0574 128.410 1 29 1006 7 262
1982287N22137 1982 92 WP MM NOT_NAMED 1982-10-15 06:00:00 TS 24.0000 128.100 main 626 616 __O___________ -1 24.0000 128.100 1 29 1006 3 267
1982287N22137 1982 92 WP MM NOT_NAMED 1982-10-15 09:00:00 TS 24.0373 128.033 main 616 616 __P___________ -1 24.0373 128.033 1 24 1007 0 0
1982287N22137 1982 92 WP MM NOT_NAMED 1982-10-15 12:00:00 TS 24.0000 128.100 main 626 626 __O___________ -1 24.0000 128.100 0 19 1008 3 163
1982287N22137 1982 92 WP MM NOT_NAMED 1982-10-15 15:00:00 TS 23.7225 128.135 main 634 634 __P___________ -1 23.7225 128.135 0 19 1008 6 172
1982287N22137 1982 92 WP MM NOT_NAMED 1982-10-15 18:00:00 TS 23.4000 128.200 main 651 651 __O___________ -1 23.4000 128.200 0 19 1008 5 163
1982287N22137 1982 92 WP MM NOT_NAMED 1982-10-15 21:00:00 TS 23.2500 128.292 main 663 663 __P___________ -1 23.2500 128.292 0 21 1008 4 149
1982287N22137 1982 92 WP MM NOT_NAMED 1982-10-16 00:00:00 TS 23.1000 128.400 main 679 679 __O___________ -1 23.1000 128.400 1 23 1008 5 154
1982287N22137 1982 92 WP MM NOT_NAMED 1982-10-16 03:00:00 TS 22.8375 128.508 main 698 698 __P___________ -1 22.8375 128.508 1 23 1008 6 163
1982287N22137 1982 92 WP MM NOT_NAMED 1982-10-16 06:00:00 TS 22.5000 128.600 main 718 718 __O___________ -1 22.5000 128.600 1 23 1008 7 168
1982287N22137 1982 92 WP MM NOT_NAMED 1982-10-16 09:00:00 TS 22.1225 128.665 main 744 744 __P___________ -1 22.1225 128.665 1 21 1009 8 174
1982287N22137 1982 92 WP MM NOT_NAMED 1982-10-16 12:00:00 TS 21.7000 128.700 main 762 743 __O___________ -1 21.7000 128.700 0 19 1010 9 178
1982287N22137 1982 92 WP MM NOT_NAMED 1982-10-16 15:00:00 TS 21.2500 128.715 main 739 722 __P___________ -1 21.2500 128.715 0 19 1010 9 0
1982287N22137 1982 92 WP MM NOT_NAMED 1982-10-16 18:00:00 TS 20.8000 128.700 main 722 707 __O___________ -1 20.8000 128.700 0 19 1010 9 182
1982287N22137 1982 92 WP MM NOT_NAMED 1982-10-16 21:00:00 TS 20.3775 128.680 main 707 685 __P___________ -1 20.3775 128.680 0 19 1010 8 187
1982287N22137 1982 92 WP MM NOT_NAMED 1982-10-17 00:00:00 TS 20.0000 128.600 main 685 657 __O___________ -1 20.0000 128.600 0 19 1010 7 199
1982287N22137 1982 92 WP MM NOT_NAMED 1982-10-17 03:00:00 TS 19.6826 128.427 main 657 630 __P___________ -1 19.6826 128.427 0 19 1010 7 212
1982287N22137 1982 92 WP MM NOT_NAMED 1982-10-17 06:00:00 TS 19.4000 128.200 main 630 __O___________ -1 19.4000 128.200 0 19 1010 7 217

Digital Typhoon Data and Search

About IBTrACS Database

This database is a web-friendly format of International Best Track Archive for Climate Stewardship (IBTrACS), a global best track data archive curated by NOAA dating back to 1842.

Updated: 2021-10-19